createdAt,value
2022-11-07T00:00:04.706Z,3.0
2022-11-07T00:02:03.660Z,5.2
2022-11-07T00:04:02.638Z,2.6
2022-11-07T00:06:03.684Z,6.2
2022-11-07T00:08:02.756Z,3.3
2022-11-07T00:10:02.786Z,4.6
2022-11-07T00:12:03.731Z,2.8
2022-11-07T00:14:03.229Z,2.7
2022-11-07T00:16:05.279Z,3.6
2022-11-07T00:18:02.569Z,4.2
2022-11-07T00:20:02.816Z,3.6
2022-11-07T00:22:02.817Z,3.3
2022-11-07T00:24:02.802Z,4.0
2022-11-07T00:26:03.939Z,3.3
2022-11-07T00:28:03.776Z,3.8
2022-11-07T00:30:03.388Z,4.0
2022-11-07T00:32:02.583Z,3.1
2022-11-07T00:34:03.048Z,4.2
2022-11-07T00:36:02.802Z,3.2
2022-11-07T00:38:02.542Z,4.9
2022-11-07T00:40:02.601Z,3.8
2022-11-07T00:42:03.310Z,4.1
2022-11-07T00:44:02.363Z,5.8
2022-11-07T00:46:05.248Z,4.5
2022-11-07T00:48:03.322Z,7.0
2022-11-07T00:50:03.166Z,5.1
2022-11-07T00:52:02.563Z,6.1
2022-11-07T00:54:03.274Z,6.5
2022-11-07T00:56:03.732Z,4.7
2022-11-07T00:58:03.571Z,5.6
2022-11-07T01:00:02.844Z,5.5
2022-11-07T01:02:02.799Z,5.6
2022-11-07T01:04:12.510Z,4.9
2022-11-07T01:06:04.500Z,6.9
2022-11-07T01:08:02.682Z,4.8
2022-11-07T01:10:03.269Z,5.6
2022-11-07T01:12:03.485Z,5.1
2022-11-07T01:14:04.336Z,12.3
2022-11-07T01:16:03.434Z,11.1
2022-11-07T01:18:02.574Z,8.9
2022-11-07T01:20:02.819Z,8.2
2022-11-07T01:22:03.000Z,8.9
2022-11-07T01:24:03.332Z,8.4
2022-11-07T01:26:06.116Z,7.9
2022-11-07T01:28:02.611Z,9.1
2022-11-07T01:30:03.725Z,6.8
2022-11-07T01:32:02.546Z,8.6
2022-11-07T01:34:03.164Z,7.3
2022-11-07T01:36:06.070Z,11.4
2022-11-07T01:38:03.151Z,9.1
2022-11-07T01:40:02.739Z,7.0
2022-11-07T01:42:03.115Z,7.6
2022-11-07T01:44:13.422Z,9.1
2022-11-07T01:46:02.648Z,11.3
2022-11-07T01:48:03.853Z,8.3
2022-11-07T01:50:03.153Z,9.0
2022-11-07T01:52:06.645Z,7.2
2022-11-07T01:54:04.170Z,6.6
2022-11-07T01:56:03.648Z,8.2
2022-11-07T01:58:05.990Z,8.0
2022-11-07T02:00:08.813Z,9.8
2022-11-07T02:02:02.775Z,11.2
2022-11-07T02:04:03.386Z,11.1
2022-11-07T02:06:06.960Z,8.9
2022-11-07T02:08:06.323Z,8.7
2022-11-07T02:10:04.949Z,9.7
2022-11-07T02:12:03.070Z,11.5
2022-11-07T02:14:03.239Z,9.6
2022-11-07T02:16:05.145Z,12.4
2022-11-07T02:18:03.487Z,10.2
2022-11-07T02:20:02.876Z,9.7
2022-11-07T02:22:13.334Z,11.3
2022-11-07T02:24:13.100Z,9.3
2022-11-07T02:26:03.406Z,12.4
2022-11-07T02:28:07.581Z,11.1
2022-11-07T02:30:05.972Z,10.4
2022-11-07T02:32:03.715Z,10.4
2022-11-07T02:34:04.247Z,10.5
2022-11-07T02:36:02.944Z,10.8
2022-11-07T02:38:06.122Z,8.3
2022-11-07T02:40:07.400Z,7.9
2022-11-07T02:42:03.662Z,9.4
2022-11-07T02:44:09.133Z,8.9
2022-11-07T02:46:06.826Z,12.6
2022-11-07T02:48:02.756Z,8.6
2022-11-07T02:50:02.668Z,9.0
2022-11-07T02:52:02.780Z,10.3
2022-11-07T02:54:02.606Z,9.6
2022-11-07T02:56:02.650Z,11.3
2022-11-07T02:58:03.109Z,12.6
2022-11-07T03:00:03.416Z,11.0
2022-11-07T03:02:02.674Z,10.4
2022-11-07T03:04:02.847Z,9.7
2022-11-07T03:06:03.348Z,11.3
2022-11-07T03:08:02.606Z,11.5
2022-11-07T03:10:02.834Z,10.0
2022-11-07T03:12:02.728Z,12.4
2022-11-07T03:14:03.209Z,11.4
2022-11-07T03:16:05.130Z,7.4
2022-11-07T03:18:02.557Z,10.4
2022-11-07T03:20:03.622Z,8.9
2022-11-07T03:22:03.319Z,11.7
2022-11-07T03:24:02.703Z,9.0
2022-11-07T03:26:03.561Z,8.9
2022-11-07T03:28:03.184Z,9.7
2022-11-07T03:30:02.587Z,10.2
2022-11-07T03:32:03.275Z,8.9
2022-11-07T03:34:03.249Z,8.8
2022-11-07T03:36:02.764Z,12.9
2022-11-07T03:38:03.321Z,13.4
2022-11-07T03:40:02.708Z,10.8
2022-11-07T03:42:02.565Z,11.4
2022-11-07T03:44:02.566Z,9.5
2022-11-07T03:46:02.794Z,7.6
2022-11-07T03:48:02.757Z,6.8
2022-11-07T03:50:04.452Z,7.8
2022-11-07T03:52:02.669Z,9.0
2022-11-07T03:54:03.157Z,8.9
2022-11-07T03:56:08.235Z,7.6
2022-11-07T03:58:03.665Z,7.0
2022-11-07T04:00:02.977Z,10.9
2022-11-07T04:02:02.713Z,6.9
2022-11-07T04:04:02.704Z,7.9
2022-11-07T04:06:02.529Z,6.9
2022-11-07T04:08:02.569Z,6.7
2022-11-07T04:10:03.246Z,9.3
2022-11-07T04:12:11.864Z,8.2
2022-11-07T04:14:11.594Z,8.9
2022-11-07T04:16:17.271Z,10.1
2022-11-07T04:18:02.664Z,9.0
2022-11-07T04:20:03.867Z,8.0
2022-11-07T04:22:02.807Z,7.8
2022-11-07T04:24:02.951Z,10.3
2022-11-07T04:26:11.707Z,11.2
2022-11-07T04:28:02.576Z,9.4
2022-11-07T04:30:13.027Z,9.0
2022-11-07T04:32:02.529Z,10.2
2022-11-07T04:34:02.654Z,8.7
2022-11-07T04:36:02.916Z,10.5
2022-11-07T04:38:02.554Z,10.5
2022-11-07T04:40:03.652Z,10.7
2022-11-07T04:42:02.576Z,13.0
2022-11-07T04:44:02.558Z,13.5
2022-11-07T04:46:02.570Z,13.4
2022-11-07T04:48:03.629Z,12.2
2022-11-07T04:50:02.548Z,12.7
2022-11-07T04:52:02.609Z,12.4
2022-11-07T04:54:02.547Z,16.2
2022-11-07T04:56:03.111Z,12.7
2022-11-07T04:58:02.622Z,14.1
2022-11-07T05:00:04.211Z,15.2
2022-11-07T05:02:02.751Z,15.4
2022-11-07T05:04:02.660Z,11.6
2022-11-07T05:06:04.211Z,14.2
2022-11-07T05:08:02.545Z,15.8
2022-11-07T05:10:07.221Z,14.4
2022-11-07T05:12:02.800Z,12.8
2022-11-07T05:14:02.537Z,10.9
2022-11-07T05:16:02.587Z,13.9
2022-11-07T05:18:03.202Z,11.1
2022-11-07T05:20:02.583Z,11.4
2022-11-07T05:22:11.833Z,13.1
2022-11-07T05:24:02.726Z,10.6
2022-11-07T05:26:03.325Z,10.0
2022-11-07T05:28:02.595Z,10.3
2022-11-07T05:30:02.735Z,11.6
2022-11-07T05:32:03.276Z,17.5
2022-11-07T05:34:02.803Z,12.0
2022-11-07T05:36:13.399Z,17.5
2022-11-07T05:38:03.626Z,13.3
2022-11-07T05:40:03.190Z,13.8
2022-11-07T05:42:04.230Z,12.6
2022-11-07T05:44:02.586Z,13.9
2022-11-07T05:46:03.576Z,9.2
2022-11-07T05:48:05.522Z,9.4
2022-11-07T05:50:02.834Z,10.4
2022-11-07T05:52:02.600Z,7.6
2022-11-07T05:54:02.718Z,7.2
2022-11-07T05:56:02.553Z,6.8
2022-11-07T05:58:09.655Z,9.1
2022-11-07T06:00:03.022Z,7.2
2022-11-07T06:02:02.679Z,7.1
2022-11-07T06:04:04.440Z,10.4
2022-11-07T06:06:02.585Z,8.6
2022-11-07T06:08:02.569Z,6.5
2022-11-07T06:10:03.892Z,8.5
2022-11-07T06:12:03.429Z,8.5
2022-11-07T06:14:02.960Z,9.1
2022-11-07T06:16:03.591Z,6.6
2022-11-07T06:18:03.888Z,7.9
2022-11-07T06:20:02.704Z,6.3
2022-11-07T06:22:02.763Z,7.4
2022-11-07T06:24:03.661Z,10.6
2022-11-07T06:26:02.570Z,11.6
2022-11-07T06:28:05.246Z,15.0
2022-11-07T06:30:03.203Z,15.9
2022-11-07T06:32:02.560Z,17.9
2022-11-07T06:34:03.249Z,12.3
2022-11-07T06:36:08.083Z,12.1
2022-11-07T06:38:03.196Z,15.6
2022-11-07T06:40:02.874Z,14.5
2022-11-07T06:42:02.559Z,11.0
2022-11-07T06:44:02.575Z,12.6
2022-11-07T06:46:05.372Z,11.4
2022-11-07T06:48:03.535Z,14.3
2022-11-07T06:50:03.111Z,10.0
2022-11-07T06:52:03.336Z,10.0
2022-11-07T06:54:02.540Z,15.9
2022-11-07T06:56:04.897Z,13.9
2022-11-07T06:58:04.599Z,9.2
2022-11-07T07:00:05.004Z,10.2
2022-11-07T07:02:03.579Z,15.2
2022-11-07T07:04:03.232Z,10.8
2022-11-07T07:06:05.513Z,13.8
2022-11-07T07:08:03.501Z,8.9
2022-11-07T07:10:02.616Z,10.2
2022-11-07T07:12:02.949Z,7.9
2022-11-07T07:14:02.765Z,8.5
2022-11-07T07:16:02.869Z,8.7
2022-11-07T07:18:04.165Z,10.9
2022-11-07T07:20:04.666Z,12.0
2022-11-07T07:22:02.640Z,13.8
2022-11-07T07:24:03.002Z,11.4
2022-11-07T07:26:02.766Z,15.3
2022-11-07T07:28:03.169Z,13.9
2022-11-07T07:30:02.572Z,13.6
2022-11-07T07:32:02.642Z,10.7
2022-11-07T07:34:02.609Z,9.4
2022-11-07T07:36:03.542Z,11.4
2022-11-07T07:38:02.550Z,12.3
2022-11-07T07:40:03.154Z,8.4
2022-11-07T07:42:02.545Z,10.6
2022-11-07T07:44:02.554Z,10.4
2022-11-07T07:46:04.981Z,9.9
2022-11-07T07:48:02.835Z,13.0
2022-11-07T07:50:03.087Z,13.5
2022-11-07T07:52:03.198Z,16.2
2022-11-07T07:54:02.567Z,15.1
2022-11-07T07:56:05.183Z,14.8
2022-11-07T07:58:02.655Z,13.9
2022-11-07T08:00:03.842Z,13.6
2022-11-07T08:02:03.236Z,13.2
2022-11-07T08:04:03.029Z,14.8
2022-11-07T08:06:05.095Z,12.1
2022-11-07T08:08:03.305Z,10.4
2022-11-07T08:10:27.135Z,9.7
2022-11-07T08:12:02.777Z,8.2
2022-11-07T08:14:02.572Z,7.8
2022-11-07T08:16:05.268Z,7.4
2022-11-07T08:18:03.968Z,11.9
2022-11-07T08:20:02.608Z,14.4
2022-11-07T08:22:02.393Z,12.3
2022-11-07T08:24:03.626Z,13.9
2022-11-07T08:26:04.008Z,13.9
2022-11-07T08:28:03.314Z,13.8
2022-11-07T08:30:03.484Z,14.9
2022-11-07T08:32:02.622Z,12.8
2022-11-07T08:34:02.681Z,20.8
2022-11-07T08:36:05.140Z,14.6
2022-11-07T08:38:02.595Z,15.6
2022-11-07T08:40:03.197Z,11.0
2022-11-07T08:42:02.846Z,13.3
2022-11-07T08:44:02.693Z,13.8
2022-11-07T08:46:02.637Z,13.7
2022-11-07T08:48:03.293Z,14.1
2022-11-07T08:50:03.142Z,14.8
2022-11-07T08:52:02.600Z,14.1
2022-11-07T08:54:02.766Z,14.9
2022-11-07T08:56:03.994Z,13.6
2022-11-07T08:58:06.046Z,14.5
2022-11-07T09:00:03.252Z,12.8
2022-11-07T09:02:44.717Z,12.5
2022-11-07T09:04:02.910Z,13.0
2022-11-07T09:06:02.894Z,13.1
2022-11-07T09:08:02.607Z,13.8
2022-11-07T09:10:03.573Z,13.1
2022-11-07T09:12:02.746Z,12.4
2022-11-07T09:14:03.328Z,12.6
2022-11-07T09:16:04.322Z,14.3
2022-11-07T09:18:04.950Z,14.6
2022-11-07T09:20:03.257Z,15.3
2022-11-07T09:22:03.183Z,14.9
2022-11-07T09:24:02.744Z,14.9
2022-11-07T09:26:02.614Z,15.5
2022-11-07T09:28:03.195Z,14.7
2022-11-07T09:30:03.297Z,15.6
2022-11-07T09:32:17.494Z,15.7
2022-11-07T09:34:02.419Z,15.1
2022-11-07T09:36:04.830Z,14.3
2022-11-07T09:38:02.428Z,15.3
2022-11-07T09:40:03.628Z,15.4
2022-11-07T09:42:11.052Z,15.9
2022-11-07T09:44:22.699Z,15.0
2022-11-07T09:46:13.720Z,15.8
2022-11-07T09:48:07.321Z,23.9
2022-11-07T09:50:07.859Z,27.9
2022-11-07T09:52:13.724Z,21.0
2022-11-07T09:54:07.424Z,15.2
2022-11-07T09:56:05.440Z,25.6
2022-11-07T09:58:07.648Z,14.7
2022-11-07T10:00:08.794Z,32.4
2022-11-07T10:02:12.453Z,24.6
2022-11-07T10:04:24.286Z,23.0
2022-11-07T10:06:11.604Z,16.7
2022-11-07T10:08:10.296Z,83.9
2022-11-07T10:10:13.107Z,18.2
2022-11-07T10:12:13.974Z,15.1
2022-11-07T10:14:10.887Z,14.5
2022-11-07T10:16:10.325Z,14.7
2022-11-07T10:18:18.655Z,14.8
2022-11-07T10:20:13.589Z,15.8
2022-11-07T10:22:17.073Z,15.4
2022-11-07T10:24:13.678Z,14.4
2022-11-07T10:26:08.323Z,16.6
2022-11-07T10:28:14.129Z,16.0
2022-11-07T10:30:03.146Z,15.4
2022-11-07T10:32:18.529Z,14.8
2022-11-07T10:34:09.876Z,20.4
2022-11-07T10:36:08.476Z,16.2
2022-11-07T10:38:13.516Z,97.3
2022-11-07T10:40:02.653Z,94.0
2022-11-07T10:42:07.356Z,44.0
2022-11-07T10:44:07.656Z,28.7
2022-11-07T10:46:05.145Z,47.5
2022-11-07T10:48:04.860Z,45.4
2022-11-07T10:50:14.320Z,18.7
2022-11-07T10:52:09.849Z,21.6
2022-11-07T10:54:03.258Z,21.3
2022-11-07T10:56:11.378Z,29.4
2022-11-07T10:58:07.584Z,62.0
2022-11-07T11:00:05.305Z,17.8
2022-11-07T11:02:03.817Z,15.0
2022-11-07T11:04:02.707Z,19.3
2022-11-07T11:06:12.203Z,27.6
2022-11-07T11:08:14.587Z,68.1
2022-11-07T11:10:02.776Z,68.1
2022-11-07T11:12:12.208Z,34.2
2022-11-07T11:14:06.578Z,15.4
2022-11-07T11:16:21.426Z,14.6
2022-11-07T11:18:05.788Z,14.6
2022-11-07T11:20:03.108Z,15.4
2022-11-07T11:22:08.583Z,15.5
2022-11-07T11:24:13.906Z,15.2
2022-11-07T11:26:07.845Z,15.2
2022-11-07T11:28:07.552Z,16.5
2022-11-07T11:30:07.627Z,14.8
2022-11-07T11:32:04.499Z,16.9
2022-11-07T11:34:10.298Z,15.4
2022-11-07T11:36:10.388Z,15.2
2022-11-07T11:38:11.811Z,16.2
2022-11-07T11:40:14.740Z,16.0
2022-11-07T11:42:04.514Z,15.8
2022-11-07T11:44:11.060Z,15.7
2022-11-07T11:46:11.464Z,16.0
2022-11-07T11:48:12.794Z,16.7
2022-11-07T11:50:10.391Z,16.9
2022-11-07T11:52:12.974Z,17.1
2022-11-07T11:54:03.489Z,17.1
2022-11-07T11:56:20.922Z,16.1
2022-11-07T11:58:12.206Z,15.3
2022-11-07T12:00:10.476Z,15.4
2022-11-07T12:02:18.265Z,17.1
2022-11-07T12:04:21.640Z,15.8
2022-11-07T12:06:12.489Z,29.3
2022-11-07T12:08:19.255Z,16.2
2022-11-07T12:10:08.302Z,14.8
2022-11-07T12:12:19.873Z,15.9
2022-11-07T12:14:11.932Z,15.4
2022-11-07T12:16:09.945Z,15.0
2022-11-07T12:18:14.242Z,15.4
2022-11-07T12:20:12.580Z,16.0
2022-11-07T12:22:11.407Z,16.6
2022-11-07T12:24:10.280Z,15.4
2022-11-07T12:26:11.750Z,15.7
2022-11-07T12:28:13.149Z,15.0
2022-11-07T12:30:09.479Z,15.2
2022-11-07T12:32:13.908Z,14.7
2022-11-07T12:34:12.770Z,15.4
2022-11-07T12:36:06.883Z,15.3
2022-11-07T12:38:17.935Z,19.4
2022-11-07T12:40:15.863Z,14.8
2022-11-07T12:42:08.890Z,16.3
2022-11-07T12:44:19.579Z,15.7
2022-11-07T12:46:12.316Z,15.1
2022-11-07T12:48:19.077Z,16.5
2022-11-07T12:50:13.709Z,14.8
2022-11-07T12:52:13.703Z,15.4
2022-11-07T12:54:20.279Z,16.4
2022-11-07T12:56:10.541Z,14.9
2022-11-07T12:58:04.414Z,16.1
2022-11-07T13:00:06.739Z,15.0
2022-11-07T13:02:13.652Z,15.5
2022-11-07T13:04:11.470Z,32.7
2022-11-07T13:06:09.167Z,17.6
2022-11-07T13:08:11.071Z,14.7
2022-11-07T13:10:09.561Z,15.9
2022-11-07T13:12:09.476Z,14.7
2022-11-07T13:14:23.765Z,15.3
2022-11-07T13:16:15.456Z,15.9
2022-11-07T13:18:02.740Z,15.6
2022-11-07T13:20:06.123Z,15.9
2022-11-07T13:22:05.065Z,15.9
2022-11-07T13:24:06.805Z,16.4
2022-11-07T13:26:20.379Z,15.3
2022-11-07T13:28:06.812Z,15.3
2022-11-07T13:30:18.925Z,15.6
2022-11-07T13:32:08.790Z,15.1
2022-11-07T13:34:12.361Z,14.9
2022-11-07T13:36:13.741Z,15.1
2022-11-07T13:38:08.700Z,14.5
2022-11-07T13:40:07.418Z,14.8
2022-11-07T13:42:03.701Z,14.9
2022-11-07T13:44:05.291Z,35.4
2022-11-07T13:46:05.516Z,14.9
2022-11-07T13:48:11.371Z,15.9
2022-11-07T13:50:16.709Z,15.1
2022-11-07T13:52:08.577Z,16.3
2022-11-07T13:54:12.305Z,14.5
2022-11-07T13:56:09.864Z,14.8
2022-11-07T13:58:08.130Z,15.2
2022-11-07T14:00:10.632Z,14.5
2022-11-07T14:02:03.559Z,15.0
2022-11-07T14:04:13.316Z,16.3
2022-11-07T14:06:04.488Z,15.9
2022-11-07T14:08:05.935Z,15.6
2022-11-07T14:10:04.768Z,16.3
2022-11-07T14:12:03.547Z,16.4
2022-11-07T14:14:02.678Z,15.2
2022-11-07T14:16:05.474Z,15.1
2022-11-07T14:18:02.790Z,14.2
2022-11-07T14:20:14.372Z,15.5
2022-11-07T14:22:02.639Z,14.5
2022-11-07T14:24:04.351Z,13.2
2022-11-07T14:26:04.826Z,13.9
2022-11-07T14:28:06.735Z,13.0
2022-11-07T14:30:02.654Z,13.3
2022-11-07T14:32:05.407Z,13.6
2022-11-07T14:34:07.079Z,13.8
2022-11-07T14:36:05.846Z,14.0
2022-11-07T14:38:10.789Z,14.4
2022-11-07T14:40:05.958Z,13.9
2022-11-07T14:42:04.183Z,15.3
2022-11-07T14:44:04.422Z,14.2
2022-11-07T14:46:13.243Z,15.6
2022-11-07T14:48:02.838Z,15.6
2022-11-07T14:50:04.562Z,14.1
2022-11-07T14:52:03.431Z,14.8
2022-11-07T14:54:09.872Z,14.5
2022-11-07T14:56:07.112Z,15.4
2022-11-07T14:58:05.251Z,15.6
2022-11-07T15:00:06.731Z,14.6
2022-11-07T15:02:16.351Z,15.8
2022-11-07T15:04:14.381Z,14.7
2022-11-07T15:06:04.049Z,14.9
2022-11-07T15:08:03.319Z,13.8
2022-11-07T15:10:13.745Z,13.5
2022-11-07T15:12:07.447Z,14.4
2022-11-07T15:14:04.699Z,15.4
2022-11-07T15:16:06.332Z,14.8
2022-11-07T15:18:06.122Z,14.4
2022-11-07T15:20:07.222Z,14.7
2022-11-07T15:22:05.560Z,14.9
2022-11-07T15:24:21.615Z,14.1
2022-11-07T15:26:13.224Z,13.3
2022-11-07T15:28:19.420Z,14.4
2022-11-07T15:30:05.879Z,13.9
2022-11-07T15:32:11.943Z,13.3
2022-11-07T15:34:03.611Z,13.3
2022-11-07T15:36:02.730Z,14.4
2022-11-07T15:38:02.763Z,13.8
2022-11-07T15:40:02.824Z,14.3
2022-11-07T15:42:02.569Z,14.2
2022-11-07T15:44:02.829Z,14.6
2022-11-07T15:46:06.744Z,14.0
2022-11-07T15:48:05.040Z,13.7
2022-11-07T15:50:03.503Z,14.3
2022-11-07T15:52:02.561Z,13.8
2022-11-07T15:54:02.559Z,13.9
2022-11-07T15:56:05.691Z,14.0
2022-11-07T15:58:02.824Z,13.3
2022-11-07T16:00:02.760Z,14.0
2022-11-07T16:02:04.193Z,14.4
2022-11-07T16:04:02.794Z,13.7
2022-11-07T16:06:02.745Z,13.4
2022-11-07T16:08:02.938Z,13.4
2022-11-07T16:10:04.364Z,13.4
2022-11-07T16:12:03.133Z,13.1
2022-11-07T16:14:36.365Z,15.2
2022-11-07T16:16:05.349Z,13.8
2022-11-07T16:18:02.582Z,14.5
2022-11-07T16:20:02.759Z,13.7
2022-11-07T16:22:02.813Z,13.2
2022-11-07T16:24:03.289Z,13.3
2022-11-07T16:26:02.676Z,13.3
2022-11-07T16:28:03.122Z,13.5
2022-11-07T16:30:02.583Z,12.6
2022-11-07T16:32:02.663Z,12.6
2022-11-07T16:34:03.620Z,13.3
2022-11-07T16:36:14.716Z,11.9
2022-11-07T16:38:02.605Z,12.2
2022-11-07T16:40:03.566Z,10.5
2022-11-07T16:42:02.536Z,12.7
2022-11-07T16:44:02.622Z,10.6
2022-11-07T16:46:03.135Z,9.8
2022-11-07T16:48:02.685Z,11.1
2022-11-07T16:50:02.607Z,11.6
2022-11-07T16:52:03.080Z,13.1
2022-11-07T16:54:02.542Z,12.8
2022-11-07T16:56:04.321Z,12.0
2022-11-07T16:58:02.852Z,11.1
2022-11-07T17:00:04.129Z,10.5
2022-11-07T17:02:04.634Z,9.0
2022-11-07T17:04:03.545Z,7.8
2022-11-07T17:06:05.149Z,10.2
2022-11-07T17:08:04.862Z,7.7
2022-11-07T17:10:02.789Z,7.5
2022-11-07T17:12:02.581Z,9.8
2022-11-07T17:14:02.632Z,9.8
2022-11-07T17:16:02.728Z,10.6
2022-11-07T17:18:08.224Z,10.8
2022-11-07T17:20:02.565Z,9.6
2022-11-07T17:22:03.110Z,8.6
2022-11-07T17:24:03.357Z,6.2
2022-11-07T17:26:03.731Z,10.8
2022-11-07T17:28:02.638Z,6.9
2022-11-07T17:30:08.204Z,5.2
2022-11-07T17:32:02.545Z,5.3
2022-11-07T17:34:02.817Z,3.0
2022-11-07T17:36:02.582Z,3.8
2022-11-07T17:38:03.961Z,4.1
2022-11-07T17:40:03.373Z,5.2
2022-11-07T17:42:02.576Z,3.7
2022-11-07T17:44:03.323Z,4.1
2022-11-07T17:46:03.350Z,4.1
2022-11-07T17:48:02.571Z,3.8
2022-11-07T17:50:03.877Z,3.8
2022-11-07T17:52:02.778Z,3.8
2022-11-07T17:54:03.002Z,4.0
2022-11-07T17:56:02.560Z,2.2
2022-11-07T17:58:02.846Z,4.3
2022-11-07T18:00:04.636Z,5.4
2022-11-07T18:02:02.642Z,2.5
2022-11-07T18:04:04.852Z,2.9
2022-11-07T18:06:02.550Z,3.9
2022-11-07T18:08:02.745Z,3.2
2022-11-07T18:10:03.221Z,3.3
2022-11-07T18:12:02.743Z,3.9
2022-11-07T18:14:03.343Z,1.7
2022-11-07T18:16:08.190Z,4.4
2022-11-07T18:18:08.203Z,3.4
2022-11-07T18:20:03.918Z,3.1
2022-11-07T18:22:03.531Z,4.8
2022-11-07T18:24:02.394Z,2.9
2022-11-07T18:26:04.915Z,3.3
2022-11-07T18:28:02.731Z,2.5
2022-11-07T18:30:03.546Z,3.3
2022-11-07T18:32:02.563Z,3.4
2022-11-07T18:34:06.566Z,4.2
2022-11-07T18:36:05.492Z,4.4
2022-11-07T18:38:03.146Z,2.7
2022-11-07T18:40:03.316Z,3.3
2022-11-07T18:42:02.609Z,2.3
2022-11-07T18:44:05.274Z,3.9
2022-11-07T18:46:05.336Z,4.6
2022-11-07T18:48:02.553Z,2.4
2022-11-07T18:50:03.155Z,3.0
2022-11-07T18:52:02.692Z,4.0
2022-11-07T18:54:05.179Z,2.9
2022-11-07T18:56:04.992Z,2.3
2022-11-07T18:58:03.024Z,2.3
2022-11-07T19:00:06.826Z,3.0
2022-11-07T19:02:03.227Z,3.5
2022-11-07T19:04:06.349Z,3.1
2022-11-07T19:06:04.352Z,4.3
2022-11-07T19:08:02.582Z,3.3
2022-11-07T19:10:03.172Z,3.3
2022-11-07T19:12:03.174Z,4.4
2022-11-07T19:14:03.580Z,3.2
2022-11-07T19:16:02.601Z,3.3
2022-11-07T19:18:02.583Z,2.5
2022-11-07T19:20:04.081Z,3.5
2022-11-07T19:22:05.250Z,4.4
2022-11-07T19:24:02.584Z,2.7
2022-11-07T19:26:02.710Z,2.7
2022-11-07T19:28:02.614Z,5.8
2022-11-07T19:30:02.644Z,2.3
2022-11-07T19:32:02.763Z,3.0
2022-11-07T19:34:02.950Z,4.1
2022-11-07T19:36:05.084Z,2.9
2022-11-07T19:38:08.644Z,4.3
2022-11-07T19:40:02.625Z,2.6
2022-11-07T19:42:02.725Z,2.4
2022-11-07T19:44:03.920Z,3.4
2022-11-07T19:46:07.930Z,3.4
2022-11-07T19:48:03.154Z,2.9
2022-11-07T19:50:02.558Z,2.9
2022-11-07T19:52:02.595Z,2.8
2022-11-07T19:54:03.918Z,4.7
2022-11-07T19:56:08.184Z,3.8
2022-11-07T19:58:03.406Z,3.8
2022-11-07T20:00:02.794Z,4.7
2022-11-07T20:02:31.124Z,3.5
2022-11-07T20:04:04.069Z,4.6
2022-11-07T20:06:02.934Z,3.3
2022-11-07T20:08:05.184Z,4.1
2022-11-07T20:10:03.454Z,6.1
2022-11-07T20:12:02.563Z,4.1
2022-11-07T20:14:03.858Z,5.2
2022-11-07T20:16:03.482Z,4.8
2022-11-07T20:18:02.563Z,3.9
2022-11-07T20:20:06.150Z,5.8
2022-11-07T20:22:03.111Z,4.3
2022-11-07T20:24:05.022Z,4.5
2022-11-07T20:26:06.117Z,4.7
2022-11-07T20:28:02.685Z,3.5
2022-11-07T20:30:02.601Z,6.3
2022-11-07T20:32:02.601Z,5.1
2022-11-07T20:34:05.845Z,4.3
2022-11-07T20:36:04.908Z,2.7
2022-11-07T20:38:05.327Z,3.0
2022-11-07T20:40:02.712Z,3.3
2022-11-07T20:42:02.563Z,3.3
2022-11-07T20:44:05.237Z,4.8
2022-11-07T20:46:05.755Z,4.1
2022-11-07T20:48:02.537Z,2.9
2022-11-07T20:50:02.703Z,3.9
2022-11-07T20:52:02.728Z,5.0
2022-11-07T20:54:02.613Z,3.5
2022-11-07T20:56:05.433Z,3.5
2022-11-07T20:58:03.798Z,2.9
2022-11-07T21:00:02.902Z,3.1
2022-11-07T21:02:04.061Z,3.4
2022-11-07T21:04:03.363Z,3.6
2022-11-07T21:06:03.270Z,2.8
2022-11-07T21:08:02.552Z,3.1
2022-11-07T21:10:03.001Z,2.3
2022-11-07T21:12:02.730Z,2.4
2022-11-07T21:14:03.413Z,2.9
2022-11-07T21:16:03.444Z,3.5
2022-11-07T21:18:03.290Z,3.1
2022-11-07T21:20:02.641Z,3.4
2022-11-07T21:22:05.947Z,3.2
2022-11-07T21:24:02.835Z,3.9
2022-11-07T21:26:07.391Z,4.4
2022-11-07T21:28:02.586Z,3.6
2022-11-07T21:30:06.392Z,4.4
2022-11-07T21:32:02.771Z,3.8
2022-11-07T21:34:03.085Z,4.2
2022-11-07T21:36:02.840Z,5.0
2022-11-07T21:38:02.562Z,4.0
2022-11-07T21:40:02.673Z,3.4
2022-11-07T21:42:02.420Z,3.1
2022-11-07T21:44:03.790Z,5.0
2022-11-07T21:46:12.069Z,3.9
2022-11-07T21:48:02.396Z,5.7
2022-11-07T21:50:17.755Z,3.9
2022-11-07T21:52:02.646Z,3.4
2022-11-07T21:54:04.370Z,4.7
2022-11-07T21:56:02.555Z,4.9
2022-11-07T21:58:03.431Z,4.3
2022-11-07T22:00:03.992Z,4.8
2022-11-07T22:02:03.315Z,5.2
2022-11-07T22:04:09.003Z,5.0
2022-11-07T22:06:06.351Z,5.6
2022-11-07T22:08:03.087Z,5.1
2022-11-07T22:10:04.068Z,5.9
2022-11-07T22:12:02.554Z,7.4
2022-11-07T22:14:03.813Z,5.2
2022-11-07T22:16:05.188Z,5.1
2022-11-07T22:18:03.298Z,5.7
2022-11-07T22:20:03.927Z,4.3
2022-11-07T22:22:03.279Z,6.1
2022-11-07T22:24:03.170Z,4.9
2022-11-07T22:26:03.523Z,4.6
2022-11-07T22:28:02.572Z,5.5
2022-11-07T22:30:02.765Z,5.1
2022-11-07T22:32:02.573Z,6.1
2022-11-07T22:34:03.112Z,6.3
2022-11-07T22:36:04.118Z,5.4
2022-11-07T22:38:03.097Z,5.5
2022-11-07T22:40:03.405Z,4.5
2022-11-07T22:42:02.916Z,4.2
2022-11-07T22:44:03.128Z,5.4
2022-11-07T22:46:03.466Z,5.4
2022-11-07T22:48:02.580Z,5.2
2022-11-07T22:50:02.618Z,5.5
2022-11-07T22:52:03.449Z,4.7
2022-11-07T22:54:05.046Z,5.6
2022-11-07T22:56:07.191Z,6.5
2022-11-07T22:58:03.495Z,5.3
2022-11-07T23:00:19.800Z,4.9
2022-11-07T23:02:02.825Z,4.7
2022-11-07T23:04:03.740Z,4.8
2022-11-07T23:06:05.117Z,5.9
2022-11-07T23:08:02.577Z,5.1
2022-11-07T23:10:04.300Z,5.3
2022-11-07T23:12:02.530Z,7.3
2022-11-07T23:14:06.083Z,5.4
2022-11-07T23:16:03.167Z,5.9
2022-11-07T23:18:03.130Z,5.9
2022-11-07T23:20:02.531Z,5.4
2022-11-07T23:22:02.855Z,5.8
2022-11-07T23:24:02.671Z,5.6
2022-11-07T23:26:04.067Z,5.8
2022-11-07T23:28:02.713Z,5.7
2022-11-07T23:30:03.150Z,6.0
2022-11-07T23:32:02.536Z,7.2
2022-11-07T23:34:02.972Z,4.9
2022-11-07T23:36:04.413Z,6.0
2022-11-07T23:38:02.551Z,7.6
2022-11-07T23:40:02.558Z,7.0
2022-11-07T23:42:02.605Z,6.0
2022-11-07T23:44:02.793Z,6.3
2022-11-07T23:46:11.878Z,6.9
2022-11-07T23:48:11.624Z,7.5
2022-11-07T23:50:11.614Z,6.0
2022-11-07T23:52:02.674Z,7.3
2022-11-07T23:54:13.366Z,6.0
2022-11-07T23:56:05.220Z,5.6
2022-11-07T23:58:11.836Z,5.0
